Airfield :
LOGIN :

Register | Disclaimer

   EN    FR    IT 

 










Legend :    VFR   Marginal VFR   IFR   Intensive IFR   Very Intensive IFR
Visi :
Ceiling :
>= 8 km
>= 3000ft
5 to 8 km
1000 to 3000 ft
1500m to 5 km
500 to 1000 ft
800 to 1500m
200 to 500 ft
< 800m
< 200 ft
Symbols :   Thunderstorms  Fog  Heavy snow  Heavy precipitations  Wind > 20 kt
SIGMETs :     Misc.  Thunderstorms  Icing  Turbulence  Mountain Waves  Volcanic Ashes







- Airport Elevation : 308 ft
- IATA code : POZ


EPPO - Poznan-Lawica

CURRENT METAR :
  • 131630Z 16011KT CAVOK 01/M03 Q1007 R10/15//95

EXPIRED METARs :
  • 131600Z 17010KT CAVOK 01/M03 Q1008 R10/15//95
  • 131530Z 17010KT CAVOK 02/M03 Q1008 R10/15//95
  • 131500Z 16010KT CAVOK 02/M03 Q1009 R10/15//95
  • 131430Z 18009KT CAVOK 03/M03 Q1009 R10/15//95
  • 131400Z 18010KT CAVOK 03/M03 Q1010 R10/15//95

TAF TAF EPPO
Valid from the 13 at 12:00 until the 14 at 12:00 UTC


131130Z 1312/1412 20010KT 9999 SCT025
PROB40
TEMPO 1321/1402 18015G25KT -SN
BECMG 1402/1404 BKN013
TEMPO 1402/1407 18018G35KT 2000 SNRA RA BKN004 OVC013
PROB30
TEMPO 1407/1412 21015G25KT 4000 SHRA BKN010CB
No reported NOTAMs for that airfield.



MET'MAP, your aeronautical weather chart ! - Copyright ORBIFLY December 2007 - Disclaimer

ORBIFLY MET'MAP TEAM :

Programming & Development : Alexandra Zaïnal
Concept & Development : Baudouin d'Aumeries
Co-Development & Prog : Marc-Olivier Méhu
Technical & hardware support : Manuel Goepfert

Contact : metmap@orbifly.com




SOURCES & CREDITS :

   NOAA